createdAt,value
2022-12-14T00:00:38.213Z,993.66
2022-12-14T00:01:38.528Z,993.67
2022-12-14T00:02:39.835Z,993.68
2022-12-14T00:03:39.437Z,993.64
2022-12-14T00:04:41.287Z,993.63
2022-12-14T00:05:41.578Z,993.57
2022-12-14T00:06:40.708Z,993.58
2022-12-14T00:07:41.950Z,993.54
2022-12-14T00:08:42.084Z,993.55
2022-12-14T00:09:42.473Z,993.56
2022-12-14T00:10:40.710Z,993.59
2022-12-14T00:11:40.998Z,993.53
2022-12-14T00:12:43.370Z,993.56
2022-12-14T00:13:42.670Z,993.50
2022-12-14T00:14:41.949Z,993.53
2022-12-14T00:15:43.316Z,993.43
2022-12-14T00:16:42.668Z,993.44
2022-12-14T00:17:43.080Z,993.38
2022-12-14T00:18:45.302Z,993.31
2022-12-14T00:19:43.566Z,993.33
2022-12-14T00:20:43.803Z,993.27
2022-12-14T00:21:44.049Z,993.24
2022-12-14T00:22:44.652Z,993.19
2022-12-14T00:23:44.507Z,993.13
2022-12-14T00:24:46.472Z,993.13
2022-12-14T00:25:45.230Z,993.11
2022-12-14T00:26:47.319Z,993.09
2022-12-14T00:27:45.625Z,993.08
2022-12-14T00:28:48.146Z,993.07
2022-12-14T00:29:46.095Z,993.11
2022-12-14T00:30:48.379Z,993.11
2022-12-14T00:31:48.964Z,993.20
2022-12-14T00:32:47.009Z,993.16
2022-12-14T00:33:49.273Z,993.14
2022-12-14T00:34:48.500Z,993.09
2022-12-14T00:35:48.819Z,993.13
2022-12-14T00:36:49.222Z,993.14
2022-12-14T00:37:53.949Z,993.12
2022-12-14T00:38:49.571Z,993.13
2022-12-14T00:39:48.805Z,993.12
2022-12-14T00:40:49.105Z,993.14
2022-12-14T00:41:49.449Z,993.15
2022-12-14T00:42:49.736Z,993.13
2022-12-14T00:43:50.047Z,993.14
2022-12-14T00:44:51.348Z,993.07
2022-12-14T00:45:50.713Z,993.03
2022-12-14T00:46:51.130Z,993.05
2022-12-14T00:47:50.918Z,993.00
2022-12-14T00:48:51.207Z,993.00
2022-12-14T00:49:51.449Z,993.00
2022-12-14T00:50:51.872Z,992.98
2022-12-14T00:51:52.293Z,992.99
2022-12-14T00:52:52.619Z,992.98
2022-12-14T00:53:52.929Z,992.96
2022-12-14T00:54:55.263Z,992.95
2022-12-14T00:55:53.641Z,992.94
2022-12-14T00:56:54.066Z,992.88
2022-12-14T00:57:55.287Z,992.90
2022-12-14T00:58:55.580Z,992.85
2022-12-14T00:59:54.881Z,992.88
2022-12-14T01:00:55.301Z,992.89
2022-12-14T01:01:55.763Z,992.90
2022-12-14T01:02:57.567Z,992.89
2022-12-14T01:03:56.862Z,992.92
2022-12-14T01:04:58.114Z,992.89
2022-12-14T01:05:56.614Z,992.80
2022-12-14T01:06:58.888Z,992.82
2022-12-14T01:07:58.412Z,992.81
2022-12-14T01:08:58.294Z,992.84
2022-12-14T01:09:59.616Z,992.84
2022-12-14T01:10:58.441Z,992.79
2022-12-14T01:11:58.224Z,992.78
2022-12-14T01:12:58.720Z,992.73
2022-12-14T01:13:58.637Z,992.79
2022-12-14T01:14:58.957Z,992.77
2022-12-14T01:15:59.512Z,992.79
2022-12-14T01:16:59.292Z,992.76
2022-12-14T01:18:00.718Z,992.77
2022-12-14T01:19:02.057Z,992.84
2022-12-14T01:20:00.353Z,992.77
2022-12-14T01:21:26.784Z,992.76
2022-12-14T01:22:26.093Z,992.76
2022-12-14T01:23:26.641Z,992.78
2022-12-14T01:24:27.373Z,992.73
2022-12-14T01:25:26.722Z,992.72
2022-12-14T01:26:27.163Z,992.67
2022-12-14T01:27:27.082Z,992.70
2022-12-14T01:28:29.415Z,992.70
2022-12-14T01:29:27.895Z,992.70
2022-12-14T01:30:28.440Z,992.68
2022-12-14T01:31:28.254Z,992.64
2022-12-14T01:32:28.923Z,992.68
2022-12-14T01:33:29.494Z,992.66
2022-12-14T01:34:29.106Z,992.61
2022-12-14T01:35:29.386Z,992.69
2022-12-14T01:36:31.703Z,992.72
2022-12-14T01:37:32.024Z,992.62
2022-12-14T01:38:32.347Z,992.61
2022-12-14T01:39:30.664Z,992.63
2022-12-14T01:40:32.919Z,992.66
2022-12-14T01:41:31.290Z,992.70
2022-12-14T01:42:32.653Z,992.65
2022-12-14T01:43:32.095Z,992.61
2022-12-14T01:44:38.305Z,992.63
2022-12-14T01:45:32.606Z,992.65
2022-12-14T01:46:34.917Z,992.59
2022-12-14T01:47:35.209Z,992.56
2022-12-14T01:48:35.579Z,992.50
2022-12-14T01:49:33.949Z,992.53
2022-12-14T01:50:36.167Z,992.52
2022-12-14T01:51:35.493Z,992.51
2022-12-14T01:52:36.813Z,992.56
2022-12-14T01:53:35.807Z,992.50
2022-12-14T01:54:37.346Z,992.46
2022-12-14T01:55:35.744Z,992.50
2022-12-14T01:56:36.622Z,992.51
2022-12-14T01:57:36.451Z,992.53
2022-12-14T01:58:38.771Z,992.45
2022-12-14T01:59:37.089Z,992.55
2022-12-14T02:00:38.327Z,992.45
2022-12-14T02:01:37.938Z,992.46
2022-12-14T02:02:38.011Z,992.37
2022-12-14T02:03:38.196Z,992.36
2022-12-14T02:04:39.264Z,992.34
2022-12-14T02:05:38.178Z,992.35
2022-12-14T02:06:39.675Z,992.38
2022-12-14T02:07:40.936Z,992.37
2022-12-14T02:08:44.466Z,992.38
2022-12-14T02:09:39.360Z,992.35
2022-12-14T02:10:39.644Z,992.35
2022-12-14T02:11:39.885Z,992.35
2022-12-14T02:12:41.175Z,992.35
2022-12-14T02:13:40.598Z,992.27
2022-12-14T02:14:42.843Z,992.33
2022-12-14T02:15:41.161Z,992.30
2022-12-14T02:16:41.451Z,992.24
2022-12-14T02:17:41.737Z,992.23
2022-12-14T02:18:44.063Z,992.28
2022-12-14T02:19:42.302Z,992.22
2022-12-14T02:20:42.666Z,992.21
2022-12-14T02:21:44.159Z,992.18
2022-12-14T02:22:44.439Z,992.18
2022-12-14T02:23:44.515Z,992.22
2022-12-14T02:24:45.861Z,992.20
2022-12-14T02:25:44.337Z,992.19
2022-12-14T02:26:45.299Z,992.18
2022-12-14T02:27:44.717Z,992.14
2022-12-14T02:28:45.110Z,992.13
2022-12-14T02:29:45.421Z,992.16
2022-12-14T02:30:45.733Z,992.08
2022-12-14T02:31:46.171Z,992.16
2022-12-14T02:32:47.392Z,992.13
2022-12-14T02:33:48.784Z,992.09
2022-12-14T02:34:49.172Z,992.03
2022-12-14T02:35:48.548Z,992.10
2022-12-14T02:36:49.012Z,992.08
2022-12-14T02:37:50.000Z,992.03
2022-12-14T02:38:48.395Z,992.09
2022-12-14T02:39:48.772Z,992.06
2022-12-14T02:40:49.174Z,992.03
2022-12-14T02:41:50.630Z,992.04
2022-12-14T02:42:49.615Z,992.02
2022-12-14T02:43:51.413Z,992.00
2022-12-14T02:44:49.759Z,991.94
2022-12-14T02:45:50.881Z,991.96
2022-12-14T02:46:52.381Z,992.01
2022-12-14T02:47:51.191Z,991.96
2022-12-14T02:48:51.529Z,991.97
2022-12-14T02:49:50.898Z,991.97
2022-12-14T02:50:51.414Z,991.96
2022-12-14T02:51:51.308Z,991.93
2022-12-14T02:52:51.710Z,991.94
2022-12-14T02:53:53.985Z,991.94
2022-12-14T02:54:54.335Z,991.91
2022-12-14T02:55:54.405Z,991.94
2022-12-14T02:56:53.772Z,991.99
2022-12-14T02:57:54.099Z,991.91
2022-12-14T02:58:53.422Z,991.89
2022-12-14T02:59:53.927Z,991.88
2022-12-14T03:00:53.744Z,991.86
2022-12-14T03:01:54.216Z,991.83
2022-12-14T03:02:55.440Z,991.80
2022-12-14T03:03:56.073Z,991.77
2022-12-14T03:04:55.849Z,991.77
2022-12-14T03:05:57.318Z,991.78
2022-12-14T03:06:57.453Z,991.79
2022-12-14T03:07:57.209Z,991.72
2022-12-14T03:08:56.104Z,991.72
2022-12-14T03:09:58.444Z,991.76
2022-12-14T03:10:56.956Z,991.71
2022-12-14T03:11:56.859Z,991.69
2022-12-14T03:12:57.138Z,991.72
2022-12-14T03:13:58.603Z,991.67
2022-12-14T03:14:57.864Z,991.61
2022-12-14T03:15:58.425Z,991.65
2022-12-14T03:17:02.656Z,991.58
2022-12-14T03:17:59.600Z,991.58
2022-12-14T03:18:59.029Z,991.58
2022-12-14T03:19:59.348Z,991.58
2022-12-14T03:21:00.110Z,991.62
2022-12-14T03:22:00.141Z,991.56
2022-12-14T03:23:01.040Z,991.57
2022-12-14T03:24:00.074Z,991.63
2022-12-14T03:25:02.725Z,991.61
2022-12-14T03:26:00.691Z,991.56
2022-12-14T03:27:01.166Z,991.61
2022-12-14T03:28:02.812Z,991.55
2022-12-14T03:29:01.222Z,991.57
2022-12-14T03:30:02.816Z,991.51
2022-12-14T03:31:02.572Z,991.45
2022-12-14T03:32:02.154Z,991.44
2022-12-14T03:33:02.002Z,991.46
2022-12-14T03:34:02.549Z,991.48
2022-12-14T03:35:03.161Z,991.46
2022-12-14T03:36:03.943Z,991.42
2022-12-14T03:37:03.715Z,991.45
2022-12-14T03:38:06.010Z,991.33
2022-12-14T03:39:04.884Z,991.31
2022-12-14T03:40:06.292Z,991.30
2022-12-14T03:41:05.719Z,991.37
2022-12-14T03:42:05.664Z,991.30
2022-12-14T03:43:05.947Z,991.28
2022-12-14T03:44:06.279Z,991.25
2022-12-14T03:45:06.659Z,991.27
2022-12-14T03:46:07.099Z,991.27
2022-12-14T03:47:07.156Z,991.21
2022-12-14T03:48:10.944Z,991.25
2022-12-14T03:49:07.690Z,991.20
2022-12-14T03:50:07.987Z,991.19
2022-12-14T03:51:08.650Z,991.18
2022-12-14T03:52:08.193Z,991.25
2022-12-14T03:53:08.549Z,991.18
2022-12-14T03:54:08.867Z,991.20
2022-12-14T03:55:08.944Z,991.19
2022-12-14T03:56:09.747Z,991.21
2022-12-14T03:57:09.290Z,991.17
2022-12-14T03:58:09.800Z,991.15
2022-12-14T03:59:10.566Z,991.12
2022-12-14T04:00:10.424Z,991.11
2022-12-14T04:01:10.901Z,991.13
2022-12-14T04:02:11.311Z,991.13
2022-12-14T04:03:11.331Z,991.10
2022-12-14T04:04:11.520Z,991.05
2022-12-14T04:05:12.401Z,991.03
2022-12-14T04:06:12.301Z,991.02
2022-12-14T04:07:11.640Z,991.00
2022-12-14T04:08:17.634Z,991.00
2022-12-14T04:09:13.999Z,990.99
2022-12-14T04:10:12.383Z,991.00
2022-12-14T04:11:14.332Z,991.00
2022-12-14T04:12:14.636Z,990.98
2022-12-14T04:13:13.531Z,990.97
2022-12-14T04:14:13.904Z,990.88
2022-12-14T04:15:13.823Z,990.91
2022-12-14T04:16:14.360Z,990.87
2022-12-14T04:17:14.269Z,990.90
2022-12-14T04:18:16.343Z,990.83
2022-12-14T04:19:16.244Z,990.89
2022-12-14T04:20:16.094Z,990.85
2022-12-14T04:21:16.428Z,990.83
2022-12-14T04:22:15.856Z,990.81
2022-12-14T04:23:16.376Z,990.82
2022-12-14T04:24:17.229Z,990.83
2022-12-14T04:25:16.556Z,990.78
2022-12-14T04:26:16.928Z,990.77
2022-12-14T04:27:17.268Z,990.75
2022-12-14T04:28:19.754Z,990.75
2022-12-14T04:29:18.782Z,990.75
2022-12-14T04:30:18.492Z,990.73
2022-12-14T04:31:18.876Z,990.76
2022-12-14T04:32:20.318Z,990.75
2022-12-14T04:33:18.713Z,990.78
2022-12-14T04:34:19.112Z,990.76
2022-12-14T04:35:19.454Z,990.73
2022-12-14T04:36:19.796Z,990.77
2022-12-14T04:37:20.301Z,990.74
2022-12-14T04:38:23.443Z,990.71
2022-12-14T04:39:21.742Z,990.77
2022-12-14T04:40:20.730Z,990.72
2022-12-14T04:41:20.802Z,990.72
2022-12-14T04:42:20.771Z,990.73
2022-12-14T04:43:21.146Z,990.72
2022-12-14T04:44:21.417Z,990.72
2022-12-14T04:45:21.776Z,990.74
2022-12-14T04:46:23.075Z,990.72
2022-12-14T04:47:24.479Z,990.71
2022-12-14T04:48:25.150Z,990.73
2022-12-14T04:49:24.708Z,990.74
2022-12-14T04:50:23.165Z,990.74
2022-12-14T04:51:23.719Z,990.66
2022-12-14T04:52:24.489Z,990.68
2022-12-14T04:53:25.175Z,990.71
2022-12-14T04:54:25.363Z,990.65
2022-12-14T04:55:25.657Z,990.65
2022-12-14T04:56:26.934Z,990.62
2022-12-14T04:57:26.857Z,990.69
2022-12-14T04:58:26.695Z,990.68
2022-12-14T04:59:26.037Z,990.61
2022-12-14T05:00:26.348Z,990.63
2022-12-14T05:01:26.788Z,990.58
2022-12-14T05:02:26.739Z,990.57
2022-12-14T05:03:27.548Z,990.50
2022-12-14T05:04:27.297Z,990.59
2022-12-14T05:05:29.093Z,990.57
2022-12-14T05:06:28.211Z,990.57
2022-12-14T05:07:28.524Z,990.55
2022-12-14T05:08:29.411Z,990.53
2022-12-14T05:09:28.541Z,990.51
2022-12-14T05:10:29.412Z,990.46
2022-12-14T05:12:29.146Z,990.45
2022-12-14T05:13:30.070Z,990.47
2022-12-14T05:14:29.718Z,990.49
2022-12-14T05:15:31.018Z,990.43
2022-12-14T05:16:30.456Z,990.44
2022-12-14T05:17:31.036Z,990.33
2022-12-14T05:18:32.388Z,990.37
2022-12-14T05:19:31.240Z,990.35
2022-12-14T05:20:31.684Z,990.33
2022-12-14T05:21:33.054Z,990.30
2022-12-14T05:22:32.350Z,990.31
2022-12-14T05:23:32.643Z,990.32
2022-12-14T05:24:33.060Z,990.33
2022-12-14T05:25:33.522Z,990.29
2022-12-14T05:26:33.855Z,990.28
2022-12-14T05:27:34.332Z,990.27
2022-12-14T05:28:35.650Z,990.28
2022-12-14T05:29:35.071Z,990.19
2022-12-14T05:30:36.797Z,990.19
2022-12-14T05:31:36.509Z,990.15
2022-12-14T05:32:36.864Z,990.15
2022-12-14T05:33:36.150Z,990.19
2022-12-14T05:34:36.662Z,990.18
2022-12-14T05:35:36.934Z,990.13
2022-12-14T05:36:37.251Z,990.11
2022-12-14T05:37:37.569Z,990.12
2022-12-14T05:38:38.996Z,990.14
2022-12-14T05:39:38.276Z,990.09
2022-12-14T05:40:38.594Z,990.09
2022-12-14T05:41:38.844Z,990.10
2022-12-14T05:42:45.134Z,990.04
2022-12-14T05:43:39.771Z,990.06
2022-12-14T05:44:41.049Z,990.08
2022-12-14T05:45:42.359Z,990.10
2022-12-14T05:46:40.695Z,990.09
2022-12-14T05:47:41.045Z,990.08
2022-12-14T05:48:46.054Z,990.06
2022-12-14T05:49:41.856Z,990.07
2022-12-14T05:50:42.212Z,990.09
2022-12-14T05:51:42.664Z,990.05
2022-12-14T05:52:43.042Z,990.06
2022-12-14T05:53:43.354Z,990.04
2022-12-14T05:54:43.764Z,990.03
2022-12-14T05:55:44.982Z,990.00
2022-12-14T05:56:45.304Z,989.96
2022-12-14T05:57:46.669Z,989.94
2022-12-14T05:58:44.997Z,989.94
2022-12-14T05:59:45.504Z,989.92
2022-12-14T06:00:45.307Z,989.91
2022-12-14T06:01:48.968Z,989.89
2022-12-14T06:02:46.090Z,989.87
2022-12-14T06:03:47.588Z,989.93
2022-12-14T06:04:47.536Z,989.98
2022-12-14T06:05:49.084Z,989.96
2022-12-14T06:06:46.872Z,989.93
2022-12-14T06:07:47.271Z,989.90
2022-12-14T06:08:47.635Z,989.88
2022-12-14T06:09:47.952Z,989.88
2022-12-14T06:10:48.321Z,989.87
2022-12-14T06:11:48.659Z,989.80
2022-12-14T06:12:53.351Z,989.81
2022-12-14T06:13:51.135Z,989.86
2022-12-14T06:14:50.355Z,989.78
2022-12-14T06:15:50.852Z,989.76
2022-12-14T06:16:49.695Z,989.78
2022-12-14T06:17:52.044Z,989.77
2022-12-14T06:18:50.343Z,989.78
2022-12-14T06:19:51.214Z,989.81
2022-12-14T06:20:51.121Z,989.79
2022-12-14T06:21:52.991Z,989.79
2022-12-14T06:22:52.783Z,989.78
2022-12-14T06:23:53.183Z,989.80
2022-12-14T06:24:54.485Z,989.78
2022-12-14T06:25:54.240Z,989.74
2022-12-14T06:26:53.326Z,989.80
2022-12-14T06:27:53.808Z,989.73
2022-12-14T06:28:52.738Z,989.79
2022-12-14T06:29:53.875Z,989.76
2022-12-14T06:30:53.357Z,989.75
2022-12-14T06:31:54.213Z,989.71
2022-12-14T06:32:53.774Z,989.67
2022-12-14T06:33:55.811Z,989.65
2022-12-14T06:34:53.796Z,989.73
2022-12-14T06:35:55.389Z,989.66
2022-12-14T06:36:55.048Z,989.66
2022-12-14T06:37:55.462Z,989.68
2022-12-14T06:38:55.745Z,989.64
2022-12-14T06:39:55.396Z,989.61
2022-12-14T06:40:56.189Z,989.55
2022-12-14T06:41:56.604Z,989.52
2022-12-14T06:42:56.965Z,989.49
2022-12-14T06:43:56.774Z,989.45
2022-12-14T06:44:57.569Z,989.42
2022-12-14T06:45:57.893Z,989.42
2022-12-14T06:46:58.884Z,989.40
2022-12-14T06:47:57.801Z,989.46
2022-12-14T06:48:58.939Z,989.46
2022-12-14T06:49:58.370Z,989.43
2022-12-14T06:50:59.608Z,989.46
2022-12-14T06:51:59.682Z,989.41
2022-12-14T06:52:59.160Z,989.46
2022-12-14T06:54:01.601Z,989.42
2022-12-14T06:55:01.369Z,989.45
2022-12-14T06:56:00.695Z,989.46
2022-12-14T06:57:02.046Z,989.48
2022-12-14T06:58:01.159Z,989.50
2022-12-14T06:59:01.963Z,989.49
2022-12-14T07:00:01.065Z,989.47
2022-12-14T07:01:02.944Z,989.47
2022-12-14T07:02:02.899Z,989.46
2022-12-14T07:03:02.521Z,989.47
2022-12-14T07:04:03.591Z,989.48
2022-12-14T07:05:02.950Z,989.45
2022-12-14T07:06:03.259Z,989.45
2022-12-14T07:07:03.609Z,989.48
2022-12-14T07:08:03.897Z,989.43
2022-12-14T07:09:03.269Z,989.34
2022-12-14T07:10:03.816Z,989.40
2022-12-14T07:11:03.678Z,989.33
2022-12-14T07:12:04.899Z,989.40
2022-12-14T07:13:05.118Z,989.37
2022-12-14T07:14:05.458Z,989.34
2022-12-14T07:15:04.859Z,989.31
2022-12-14T07:16:06.188Z,989.33
2022-12-14T07:17:06.456Z,989.34
2022-12-14T07:18:06.876Z,989.34
2022-12-14T07:19:07.133Z,989.32
2022-12-14T07:20:07.200Z,989.28
2022-12-14T07:21:07.496Z,989.27
2022-12-14T07:22:08.078Z,989.30
2022-12-14T07:23:07.300Z,989.33
2022-12-14T07:24:08.820Z,989.32
2022-12-14T07:25:09.834Z,989.29
2022-12-14T07:26:09.788Z,989.29
2022-12-14T07:27:08.870Z,989.26
2022-12-14T07:28:08.457Z,989.30
2022-12-14T07:29:08.958Z,989.25
2022-12-14T07:30:08.640Z,989.26
2022-12-14T07:31:09.053Z,989.27
2022-12-14T07:32:09.131Z,989.28
2022-12-14T07:33:09.297Z,989.22
2022-12-14T07:34:09.406Z,989.17
2022-12-14T07:35:16.248Z,989.18
2022-12-14T07:36:09.001Z,989.13
2022-12-14T07:37:11.140Z,989.17
2022-12-14T07:38:10.308Z,989.18
2022-12-14T07:39:10.575Z,989.15
2022-12-14T07:40:10.048Z,989.20
2022-12-14T07:41:11.136Z,989.21
2022-12-14T07:42:11.222Z,989.15
2022-12-14T07:43:11.486Z,989.18
2022-12-14T07:44:11.604Z,989.15
2022-12-14T07:45:11.754Z,989.13
2022-12-14T07:46:11.964Z,989.14
2022-12-14T07:47:16.395Z,989.08
2022-12-14T07:48:12.773Z,989.07
2022-12-14T07:49:12.423Z,989.13
2022-12-14T07:50:12.600Z,989.08
2022-12-14T07:51:14.165Z,989.13
2022-12-14T07:52:12.185Z,989.08
2022-12-14T07:53:15.409Z,989.09
2022-12-14T07:54:12.946Z,989.07
2022-12-14T07:55:14.386Z,989.09
2022-12-14T07:56:15.781Z,989.07
2022-12-14T07:57:14.326Z,989.00
2022-12-14T07:58:15.156Z,989.02
2022-12-14T07:59:14.645Z,989.01
2022-12-14T08:00:15.624Z,988.99
2022-12-14T08:01:15.109Z,988.96
2022-12-14T08:02:16.021Z,989.02
2022-12-14T08:03:15.908Z,989.00
2022-12-14T08:04:15.505Z,988.99
2022-12-14T08:05:16.214Z,989.00
2022-12-14T08:06:15.875Z,989.00
2022-12-14T08:07:17.828Z,988.97
2022-12-14T08:08:17.181Z,989.00
2022-12-14T08:09:17.574Z,988.97
2022-12-14T08:10:18.026Z,988.97
2022-12-14T08:11:18.309Z,988.93
2022-12-14T08:12:18.263Z,988.94
2022-12-14T08:13:18.539Z,988.92
2022-12-14T08:14:19.073Z,988.90
2022-12-14T08:15:19.381Z,988.84
2022-12-14T08:16:19.847Z,988.84
2022-12-14T08:17:19.910Z,988.85
2022-12-14T08:18:19.870Z,988.87
2022-12-14T08:19:20.306Z,988.85
2022-12-14T08:20:20.364Z,988.85
2022-12-14T08:21:21.138Z,988.84
2022-12-14T08:22:21.494Z,988.86
2022-12-14T08:23:21.666Z,988.85
2022-12-14T08:24:22.030Z,988.75
2022-12-14T08:25:22.266Z,988.76
2022-12-14T08:26:22.432Z,988.75
2022-12-14T08:27:22.549Z,988.75
2022-12-14T08:28:22.856Z,988.78
2022-12-14T08:29:22.863Z,988.79
2022-12-14T08:30:22.971Z,988.81
2022-12-14T08:31:23.349Z,988.88
2022-12-14T08:32:23.565Z,988.88
2022-12-14T08:33:24.247Z,988.88
2022-12-14T08:34:24.198Z,988.88
2022-12-14T08:35:24.725Z,988.83
2022-12-14T08:36:24.673Z,988.79
2022-12-14T08:37:25.043Z,988.87
2022-12-14T08:38:25.710Z,988.81
2022-12-14T08:39:25.539Z,988.81
2022-12-14T08:40:26.205Z,988.83
2022-12-14T08:41:26.272Z,988.78
2022-12-14T08:42:25.988Z,988.80
2022-12-14T08:43:26.468Z,988.82
2022-12-14T08:44:26.598Z,988.76
2022-12-14T08:45:27.049Z,988.79
2022-12-14T08:46:26.955Z,988.81
2022-12-14T08:47:27.031Z,988.83
2022-12-14T08:48:28.073Z,988.86
2022-12-14T08:49:32.101Z,988.92
2022-12-14T08:50:27.856Z,988.94
2022-12-14T08:51:28.115Z,988.99
2022-12-14T08:52:28.370Z,989.01
2022-12-14T08:53:28.877Z,988.99
2022-12-14T08:54:28.665Z,988.97
2022-12-14T08:55:32.514Z,988.97
2022-12-14T08:56:28.255Z,989.00
2022-12-14T08:57:29.064Z,988.97
2022-12-14T08:58:29.292Z,988.96
2022-12-14T08:59:59.728Z,988.98
2022-12-14T09:00:30.534Z,989.02
2022-12-14T09:01:33.419Z,988.96
2022-12-14T09:02:30.358Z,988.93
2022-12-14T09:03:30.305Z,988.91
2022-12-14T09:04:30.370Z,988.87
2022-12-14T09:05:31.174Z,988.79
2022-12-14T09:06:30.849Z,988.93
2022-12-14T09:07:30.965Z,988.93
2022-12-14T09:08:31.250Z,988.95
2022-12-14T09:09:31.562Z,988.87
2022-12-14T09:10:31.913Z,988.90
2022-12-14T09:11:31.732Z,988.87
2022-12-14T09:12:32.437Z,988.91
2022-12-14T09:13:33.301Z,988.95
2022-12-14T09:14:32.910Z,988.97
2022-12-14T09:15:34.353Z,988.93
2022-12-14T09:16:33.690Z,988.92
2022-12-14T09:17:33.923Z,988.88
2022-12-14T09:18:34.468Z,988.90
2022-12-14T09:19:34.508Z,988.89
2022-12-14T09:20:34.059Z,988.93
2022-12-14T09:21:34.958Z,988.89
2022-12-14T09:22:35.360Z,988.89
2022-12-14T09:23:36.051Z,988.91
2022-12-14T09:24:35.979Z,988.94
2022-12-14T09:25:36.698Z,988.89
2022-12-14T09:26:36.548Z,988.92
2022-12-14T09:27:37.008Z,988.93
2022-12-14T09:28:36.878Z,988.93
2022-12-14T09:29:37.419Z,988.91
2022-12-14T09:30:37.431Z,988.97
2022-12-14T09:31:37.717Z,988.97
2022-12-14T09:32:37.779Z,988.95
2022-12-14T09:33:38.110Z,988.90
2022-12-14T09:34:37.781Z,988.92
2022-12-14T09:35:38.719Z,988.88
2022-12-14T09:36:39.090Z,988.90
2022-12-14T09:37:39.451Z,988.82
2022-12-14T09:38:39.801Z,988.83
2022-12-14T09:39:40.459Z,988.83
2022-12-14T09:40:40.288Z,988.83
2022-12-14T09:41:40.649Z,988.78
2022-12-14T09:42:41.029Z,988.85
2022-12-14T09:43:41.476Z,988.80
2022-12-14T09:44:41.343Z,988.79
2022-12-14T09:45:41.945Z,988.85
2022-12-14T09:46:41.529Z,988.82
2022-12-14T09:47:41.912Z,988.83
2022-12-14T09:48:42.496Z,988.83
2022-12-14T09:49:42.341Z,988.87
2022-12-14T09:50:41.842Z,988.83
2022-12-14T09:51:41.911Z,988.86
2022-12-14T09:52:42.852Z,988.85
2022-12-14T09:53:44.531Z,988.83
2022-12-14T09:54:43.514Z,988.75
2022-12-14T09:55:43.345Z,988.76
2022-12-14T09:56:43.868Z,988.75
2022-12-14T09:57:43.751Z,988.81
2022-12-14T09:58:44.295Z,988.77
2022-12-14T09:59:44.039Z,988.77
2022-12-14T10:00:49.682Z,988.74
2022-12-14T10:01:55.504Z,988.75
2022-12-14T10:02:44.897Z,988.72
2022-12-14T10:03:45.073Z,988.75
2022-12-14T10:04:47.775Z,988.77
2022-12-14T10:05:45.519Z,988.80
2022-12-14T10:06:45.396Z,988.82
2022-12-14T10:07:45.879Z,988.74
2022-12-14T10:08:50.989Z,988.82
2022-12-14T10:09:46.161Z,988.75
2022-12-14T10:10:46.569Z,988.76
2022-12-14T10:11:46.637Z,988.80
2022-12-14T10:12:46.964Z,988.79
2022-12-14T10:13:47.251Z,988.79
2022-12-14T10:14:47.331Z,988.75
2022-12-14T10:15:47.460Z,988.77
2022-12-14T10:16:51.817Z,988.77
2022-12-14T10:17:48.111Z,988.72
2022-12-14T10:18:59.436Z,988.77
2022-12-14T10:19:48.349Z,988.73
2022-12-14T10:20:48.846Z,988.74
2022-12-14T10:21:48.447Z,988.76
2022-12-14T10:22:48.725Z,988.71
2022-12-14T10:23:49.064Z,988.70
2022-12-14T10:24:49.914Z,988.70
2022-12-14T10:25:49.571Z,988.73
2022-12-14T10:26:49.854Z,988.72
2022-12-14T10:28:16.100Z,988.68
2022-12-14T10:28:50.393Z,988.68
2022-12-14T10:29:50.679Z,988.79
2022-12-14T10:30:50.953Z,988.75
2022-12-14T10:31:53.052Z,988.73
2022-12-14T10:32:51.297Z,988.77
2022-12-14T10:33:51.414Z,988.77
2022-12-14T10:34:51.719Z,988.71
2022-12-14T10:35:51.691Z,988.79
2022-12-14T10:36:51.846Z,988.72
2022-12-14T10:37:52.210Z,988.72
2022-12-14T10:38:51.730Z,988.72
2022-12-14T10:39:52.795Z,988.75
2022-12-14T10:40:53.570Z,988.70
2022-12-14T10:41:52.659Z,988.71
2022-12-14T10:42:53.116Z,988.74
2022-12-14T10:43:53.201Z,988.71
2022-12-14T10:45:04.265Z,988.73
2022-12-14T10:45:53.256Z,988.74
2022-12-14T10:46:54.000Z,988.73
2022-12-14T10:47:54.098Z,988.74
2022-12-14T10:48:54.193Z,988.69
2022-12-14T10:49:53.537Z,988.76
2022-12-14T10:50:54.615Z,988.78
2022-12-14T10:51:55.989Z,988.70
2022-12-14T10:52:55.189Z,988.69
2022-12-14T10:53:54.566Z,988.60
2022-12-14T10:54:59.039Z,988.59
2022-12-14T10:55:55.650Z,988.60
2022-12-14T10:56:56.056Z,988.59
2022-12-14T10:57:55.933Z,988.61
2022-12-14T10:58:56.278Z,988.56
2022-12-14T11:00:08.453Z,988.62
2022-12-14T11:00:55.847Z,988.56
2022-12-14T11:01:57.278Z,988.58
2022-12-14T11:02:56.799Z,988.57
2022-12-14T11:03:56.611Z,988.59
2022-12-14T11:04:56.884Z,988.53
2022-12-14T11:05:57.256Z,988.53
2022-12-14T11:06:57.406Z,988.53
2022-12-14T11:07:57.779Z,988.50
2022-12-14T11:08:57.723Z,988.52
2022-12-14T11:09:58.489Z,988.53
2022-12-14T11:10:58.588Z,988.57
2022-12-14T11:11:58.878Z,988.56
2022-12-14T11:12:59.284Z,988.49
2022-12-14T11:13:59.782Z,988.52
2022-12-14T11:14:59.447Z,988.52
2022-12-14T11:15:59.658Z,988.60
2022-12-14T11:17:00.276Z,988.56
2022-12-14T11:18:00.550Z,988.52
2022-12-14T11:19:00.346Z,988.50
2022-12-14T11:20:00.708Z,988.49
2022-12-14T11:21:01.003Z,988.42
2022-12-14T11:22:01.326Z,988.46
2022-12-14T11:23:01.837Z,988.45
2022-12-14T11:24:00.748Z,988.48
2022-12-14T11:25:01.281Z,988.49
2022-12-14T11:26:02.073Z,988.45
2022-12-14T11:27:02.362Z,988.50
2022-12-14T11:28:02.711Z,988.51
2022-12-14T11:29:03.019Z,988.50
2022-12-14T11:30:03.354Z,988.48
2022-12-14T11:31:03.815Z,988.44
2022-12-14T11:32:03.698Z,988.43
2022-12-14T11:33:03.997Z,988.44
2022-12-14T11:34:04.066Z,988.42
2022-12-14T11:35:04.312Z,988.39
2022-12-14T11:36:04.371Z,988.41
2022-12-14T11:37:04.926Z,988.41
2022-12-14T11:38:05.265Z,988.35
2022-12-14T11:39:04.824Z,988.37
2022-12-14T11:40:05.118Z,988.28
2022-12-14T11:41:11.084Z,988.30
2022-12-14T11:42:05.357Z,988.18
2022-12-14T11:43:05.604Z,988.25
2022-12-14T11:44:05.053Z,988.23
2022-12-14T11:45:05.639Z,988.27
2022-12-14T11:46:05.785Z,988.22
2022-12-14T11:47:05.857Z,988.20
2022-12-14T11:48:06.170Z,988.22
2022-12-14T11:49:06.162Z,988.17
2022-12-14T11:50:06.360Z,988.18
2022-12-14T11:51:06.681Z,988.13
2022-12-14T11:52:06.911Z,988.16
2022-12-14T11:53:11.306Z,988.20
2022-12-14T11:54:07.605Z,988.12
2022-12-14T11:55:07.889Z,988.14
2022-12-14T11:56:08.360Z,988.08
2022-12-14T11:57:08.143Z,988.10
2022-12-14T11:58:08.613Z,988.11
2022-12-14T11:59:08.900Z,988.02
2022-12-14T12:00:08.993Z,988.07
2022-12-14T12:01:09.344Z,988.01
2022-12-14T12:02:09.881Z,988.06
2022-12-14T12:03:09.723Z,987.96
2022-12-14T12:04:10.080Z,987.99
2022-12-14T12:05:10.358Z,987.98
2022-12-14T12:06:10.738Z,988.03
2022-12-14T12:07:11.045Z,988.00
2022-12-14T12:08:11.349Z,988.05
2022-12-14T12:09:11.711Z,988.01
2022-12-14T12:10:12.029Z,987.98
2022-12-14T12:11:12.420Z,988.00
2022-12-14T12:12:12.657Z,988.02
2022-12-14T12:13:12.848Z,987.98
2022-12-14T12:14:13.120Z,987.96
2022-12-14T12:15:13.362Z,988.02
2022-12-14T12:16:13.802Z,988.01
2022-12-14T12:17:13.461Z,987.94
2022-12-14T12:18:13.649Z,987.93
2022-12-14T12:19:14.050Z,987.91
2022-12-14T12:20:13.778Z,987.89
2022-12-14T12:21:14.103Z,987.86
2022-12-14T12:22:14.749Z,987.79
2022-12-14T12:23:14.201Z,987.80
2022-12-14T12:24:14.434Z,987.77
2022-12-14T12:25:26.516Z,987.80
2022-12-14T12:26:14.993Z,987.73
2022-12-14T12:27:15.317Z,987.77
2022-12-14T12:28:15.491Z,987.75
2022-12-14T12:29:15.800Z,987.79
2022-12-14T12:30:15.937Z,987.70
2022-12-14T12:31:17.164Z,987.74
2022-12-14T12:32:16.655Z,987.73
2022-12-14T12:33:16.540Z,987.73